sensor_id;sensor_type;location;lat;lon;timestamp;P1;durP1;ratioP1;P2;durP2;ratioP2
75616;SDS011;64200;55.426;37.758;2023-02-28T00:03:46;5.93;;;2.67;;
75616;SDS011;64200;55.426;37.758;2023-02-28T00:08:47;5.22;;;2.70;;
75616;SDS011;64200;55.426;37.758;2023-02-28T00:13:47;5.65;;;2.97;;
75616;SDS011;64200;55.426;37.758;2023-02-28T00:18:48;4.47;;;2.28;;
75616;SDS011;64200;55.426;37.758;2023-02-28T00:23:49;3.42;;;2.10;;
75616;SDS011;64200;55.426;37.758;2023-02-28T00:28:51;4.77;;;2.20;;
75616;SDS011;64200;55.426;37.758;2023-02-28T00:33:52;5.35;;;2.60;;
75616;SDS011;64200;55.426;37.758;2023-02-28T00:38:53;3.93;;;2.07;;
75616;SDS011;64200;55.426;37.758;2023-02-28T00:43:53;5.43;;;2.78;;
75616;SDS011;64200;55.426;37.758;2023-02-28T00:48:54;4.97;;;2.17;;
75616;SDS011;64200;55.426;37.758;2023-02-28T00:53:55;5.32;;;2.67;;
75616;SDS011;64200;55.426;37.758;2023-02-28T00:58:55;6.05;;;2.60;;
75616;SDS011;64200;55.426;37.758;2023-02-28T01:03:56;4.83;;;2.57;;
75616;SDS011;64200;55.426;37.758;2023-02-28T01:08:56;5.00;;;2.77;;
75616;SDS011;64200;55.426;37.758;2023-02-28T01:13:58;6.85;;;2.85;;
75616;SDS011;64200;55.426;37.758;2023-02-28T01:18:58;4.40;;;2.78;;
75616;SDS011;64200;55.426;37.758;2023-02-28T01:23:59;4.63;;;2.65;;
75616;SDS011;64200;55.426;37.758;2023-02-28T01:28:59;5.80;;;3.00;;
75616;SDS011;64200;55.426;37.758;2023-02-28T01:34:00;6.97;;;3.33;;
75616;SDS011;64200;55.426;37.758;2023-02-28T01:39:01;3.95;;;2.20;;
75616;SDS011;64200;55.426;37.758;2023-02-28T01:44:03;3.67;;;1.10;;
75616;SDS011;64200;55.426;37.758;2023-02-28T01:49:13;4.18;;;2.30;;
75616;SDS011;64200;55.426;37.758;2023-02-28T01:54:18;3.00;;;1.48;;
75616;SDS011;64200;55.426;37.758;2023-02-28T01:59:25;6.20;;;3.45;;
75616;SDS011;64200;55.426;37.758;2023-02-28T02:04:35;9.43;;;3.45;;
75616;SDS011;64200;55.426;37.758;2023-02-28T02:09:42;2.42;;;1.55;;
75616;SDS011;64200;55.426;37.758;2023-02-28T02:19:53;4.40;;;3.28;;
75616;SDS011;64200;55.426;37.758;2023-02-28T02:36:39;6.63;;;2.92;;
75616;SDS011;64200;55.426;37.758;2023-02-28T02:42:03;2.38;;;1.40;;
75616;SDS011;64200;55.426;37.758;2023-02-28T02:47:14;7.07;;;2.72;;
75616;SDS011;64200;55.426;37.758;2023-02-28T02:52:22;2.53;;;1.63;;
75616;SDS011;64200;55.426;37.758;2023-02-28T02:57:45;4.80;;;2.17;;
75616;SDS011;64200;55.426;37.758;2023-02-28T03:02:49;4.50;;;2.33;;
75616;SDS011;64200;55.426;37.758;2023-02-28T03:07:54;8.48;;;2.42;;
75616;SDS011;64200;55.426;37.758;2023-02-28T03:13:30;2.10;;;1.10;;
75616;SDS011;64200;55.426;37.758;2023-02-28T03:29:10;4.47;;;1.77;;
75616;SDS011;64200;55.426;37.758;2023-02-28T03:34:19;4.13;;;2.38;;
75616;SDS011;64200;55.426;37.758;2023-02-28T03:39:33;3.70;;;2.33;;
75616;SDS011;64200;55.426;37.758;2023-02-28T03:44:44;5.47;;;2.15;;
75616;SDS011;64200;55.426;37.758;2023-02-28T03:49:54;4.15;;;1.95;;
75616;SDS011;64200;55.426;37.758;2023-02-28T03:55:05;1.95;;;1.05;;
75616;SDS011;64200;55.426;37.758;2023-02-28T04:00:21;2.28;;;1.17;;
75616;SDS011;64200;55.426;37.758;2023-02-28T04:05:28;3.42;;;1.60;;
75616;SDS011;64200;55.426;37.758;2023-02-28T04:10:30;5.43;;;1.45;;
75616;SDS011;64200;55.426;37.758;2023-02-28T04:15:30;4.80;;;1.95;;
75616;SDS011;64200;55.426;37.758;2023-02-28T04:20:31;4.07;;;1.38;;
75616;SDS011;64200;55.426;37.758;2023-02-28T04:25:32;2.58;;;1.27;;
75616;SDS011;64200;55.426;37.758;2023-02-28T04:30:33;2.90;;;1.13;;
75616;SDS011;64200;55.426;37.758;2023-02-28T04:35:33;4.00;;;1.52;;
75616;SDS011;64200;55.426;37.758;2023-02-28T04:40:35;2.08;;;1.25;;
75616;SDS011;64200;55.426;37.758;2023-02-28T04:45:35;4.90;;;2.47;;
75616;SDS011;64200;55.426;37.758;2023-02-28T04:50:36;3.92;;;1.27;;
75616;SDS011;64200;55.426;37.758;2023-02-28T04:55:36;3.83;;;1.70;;
75616;SDS011;64200;55.426;37.758;2023-02-28T05:00:40;7.45;;;2.85;;
75616;SDS011;64200;55.426;37.758;2023-02-28T05:05:40;3.10;;;1.65;;
75616;SDS011;64200;55.426;37.758;2023-02-28T05:10:41;2.33;;;1.47;;
75616;SDS011;64200;55.426;37.758;2023-02-28T05:15:41;2.85;;;1.58;;
75616;SDS011;64200;55.426;37.758;2023-02-28T05:20:42;2.77;;;1.37;;
75616;SDS011;64200;55.426;37.758;2023-02-28T05:25:42;3.08;;;1.38;;
75616;SDS011;64200;55.426;37.758;2023-02-28T05:30:43;3.77;;;1.63;;
75616;SDS011;64200;55.426;37.758;2023-02-28T05:35:43;3.37;;;2.17;;
75616;SDS011;64200;55.426;37.758;2023-02-28T05:40:44;4.80;;;2.13;;
75616;SDS011;64200;55.426;37.758;2023-02-28T05:45:44;5.57;;;2.30;;
75616;SDS011;64200;55.426;37.758;2023-02-28T05:50:45;1.97;;;1.13;;
75616;SDS011;64200;55.426;37.758;2023-02-28T05:55:46;5.45;;;2.17;;
75616;SDS011;64200;55.426;37.758;2023-02-28T06:00:46;5.70;;;2.33;;
75616;SDS011;64200;55.426;37.758;2023-02-28T06:05:48;2.60;;;1.80;;
75616;SDS011;64200;55.426;37.758;2023-02-28T06:10:48;1.77;;;1.00;;
75616;SDS011;64200;55.426;37.758;2023-02-28T06:15:49;3.00;;;1.73;;
75616;SDS011;64200;55.426;37.758;2023-02-28T06:20:53;2.25;;;1.20;;
75616;SDS011;64200;55.426;37.758;2023-02-28T06:25:54;3.20;;;1.52;;
75616;SDS011;64200;55.426;37.758;2023-02-28T06:30:58;4.68;;;2.13;;
75616;SDS011;64200;55.426;37.758;2023-02-28T06:40:59;5.43;;;2.23;;
75616;SDS011;64200;55.426;37.758;2023-02-28T06:46:01;3.17;;;2.13;;
75616;SDS011;64200;55.426;37.758;2023-02-28T06:51:10;3.42;;;2.33;;
75616;SDS011;64200;55.426;37.758;2023-02-28T06:56:13;3.97;;;2.47;;
75616;SDS011;64200;55.426;37.758;2023-02-28T07:01:16;2.75;;;2.42;;
75616;SDS011;64200;55.426;37.758;2023-02-28T07:06:18;4.50;;;2.22;;
75616;SDS011;64200;55.426;37.758;2023-02-28T07:11:20;5.63;;;2.22;;
75616;SDS011;64200;55.426;37.758;2023-02-28T07:16:25;4.43;;;2.22;;
75616;SDS011;64200;55.426;37.758;2023-02-28T07:21:26;3.70;;;1.95;;
75616;SDS011;64200;55.426;37.758;2023-02-28T07:26:26;4.82;;;3.28;;
75616;SDS011;64200;55.426;37.758;2023-02-28T07:31:27;4.33;;;3.67;;
75616;SDS011;64200;55.426;37.758;2023-02-28T07:36:28;6.00;;;2.55;;
75616;SDS011;64200;55.426;37.758;2023-02-28T07:41:36;3.78;;;2.00;;
75616;SDS011;64200;55.426;37.758;2023-02-28T07:46:43;3.70;;;1.88;;
75616;SDS011;64200;55.426;37.758;2023-02-28T07:51:43;6.10;;;2.60;;
75616;SDS011;64200;55.426;37.758;2023-02-28T07:56:44;5.25;;;2.75;;
75616;SDS011;64200;55.426;37.758;2023-02-28T08:01:44;4.53;;;1.80;;
75616;SDS011;64200;55.426;37.758;2023-02-28T08:06:45;5.97;;;2.72;;
75616;SDS011;64200;55.426;37.758;2023-02-28T08:11:46;4.60;;;2.08;;
75616;SDS011;64200;55.426;37.758;2023-02-28T08:16:46;5.00;;;2.87;;
75616;SDS011;64200;55.426;37.758;2023-02-28T08:21:47;4.40;;;2.13;;
75616;SDS011;64200;55.426;37.758;2023-02-28T08:26:48;2.97;;;1.47;;
75616;SDS011;64200;55.426;37.758;2023-02-28T08:31:49;2.67;;;1.70;;
75616;SDS011;64200;55.426;37.758;2023-02-28T08:36:49;4.30;;;2.53;;
75616;SDS011;64200;55.426;37.758;2023-02-28T08:41:50;4.97;;;2.47;;
75616;SDS011;64200;55.426;37.758;2023-02-28T08:46:50;4.13;;;2.03;;
75616;SDS011;64200;55.426;37.758;2023-02-28T08:51:51;4.35;;;2.53;;
75616;SDS011;64200;55.426;37.758;2023-02-28T08:56:52;5.60;;;2.75;;
75616;SDS011;64200;55.426;37.758;2023-02-28T09:01:52;5.33;;;2.70;;
75616;SDS011;64200;55.426;37.758;2023-02-28T09:06:53;3.63;;;2.03;;
75616;SDS011;64200;55.426;37.758;2023-02-28T09:11:55;9.82;;;1.92;;
75616;SDS011;64200;55.426;37.758;2023-02-28T09:16:56;4.15;;;2.20;;
75616;SDS011;64200;55.426;37.758;2023-02-28T09:21:57;2.05;;;1.25;;
75616;SDS011;64200;55.426;37.758;2023-02-28T09:26:58;2.70;;;1.73;;
75616;SDS011;64200;55.426;37.758;2023-02-28T09:31:59;5.20;;;2.22;;
75616;SDS011;64200;55.426;37.758;2023-02-28T09:36:59;3.50;;;1.80;;
75616;SDS011;64200;55.426;37.758;2023-02-28T09:42:00;3.43;;;1.80;;
75616;SDS011;64200;55.426;37.758;2023-02-28T09:52:18;3.15;;;1.40;;
75616;SDS011;64200;55.426;37.758;2023-02-28T10:18:27;2.97;;;1.80;;
75616;SDS011;64200;55.426;37.758;2023-02-28T10:23:42;3.13;;;1.60;;
75616;SDS011;64200;55.426;37.758;2023-02-28T10:28:45;6.20;;;1.58;;
75616;SDS011;64200;55.426;37.758;2023-02-28T10:33:45;4.03;;;1.40;;
75616;SDS011;64200;55.426;37.758;2023-02-28T10:38:47;2.85;;;1.77;;
75616;SDS011;64200;55.426;37.758;2023-02-28T10:43:48;4.50;;;1.20;;
75616;SDS011;64200;55.426;37.758;2023-02-28T10:54:16;4.05;;;1.70;;
75616;SDS011;64200;55.426;37.758;2023-02-28T10:59:30;3.03;;;1.90;;
75616;SDS011;64200;55.426;37.758;2023-02-28T11:04:32;4.50;;;2.10;;
75616;SDS011;64200;55.426;37.758;2023-02-28T11:09:41;3.92;;;1.80;;
75616;SDS011;64200;55.426;37.758;2023-02-28T11:14:59;2.63;;;1.52;;
75616;SDS011;64200;55.426;37.758;2023-02-28T11:20:05;4.53;;;2.05;;
75616;SDS011;64200;55.426;37.758;2023-02-28T11:25:09;4.28;;;1.70;;
75616;SDS011;64200;55.426;37.758;2023-02-28T11:30:28;4.10;;;2.08;;
75616;SDS011;64200;55.426;37.758;2023-02-28T11:35:30;3.50;;;2.05;;
75616;SDS011;64200;55.426;37.758;2023-02-28T11:46:11;2.97;;;1.70;;
75616;SDS011;64200;55.426;37.758;2023-02-28T12:02:40;4.53;;;2.33;;
75616;SDS011;64200;55.426;37.758;2023-02-28T12:13:26;5.63;;;2.65;;
75616;SDS011;64200;55.426;37.758;2023-02-28T12:18:47;3.90;;;2.08;;
75616;SDS011;64200;55.426;37.758;2023-02-28T12:24:07;4.15;;;2.70;;
75616;SDS011;64200;55.426;37.758;2023-02-28T12:29:34;4.43;;;2.00;;
75616;SDS011;64200;55.426;37.758;2023-02-28T12:40:11;3.80;;;1.97;;
75616;SDS011;64200;55.426;37.758;2023-02-28T12:45:19;6.18;;;2.20;;
75616;SDS011;64200;55.426;37.758;2023-02-28T12:50:21;4.03;;;1.92;;
75616;SDS011;64200;55.426;37.758;2023-02-28T12:55:38;2.88;;;2.03;;
75616;SDS011;64200;55.426;37.758;2023-02-28T13:06:28;3.35;;;2.00;;
75616;SDS011;64200;55.426;37.758;2023-02-28T13:11:33;4.55;;;2.45;;
75616;SDS011;64200;55.426;37.758;2023-02-28T13:17:17;4.32;;;2.17;;
75616;SDS011;64200;55.426;37.758;2023-02-28T13:22:15;3.60;;;1.77;;
75616;SDS011;64200;55.426;37.758;2023-02-28T13:27:24;4.78;;;2.25;;
75616;SDS011;64200;55.426;37.758;2023-02-28T13:32:34;3.60;;;2.05;;
75616;SDS011;64200;55.426;37.758;2023-02-28T13:37:47;3.00;;;1.80;;
75616;SDS011;64200;55.426;37.758;2023-02-28T13:42:49;4.53;;;2.42;;
75616;SDS011;64200;55.426;37.758;2023-02-28T13:47:54;4.05;;;1.90;;
75616;SDS011;64200;55.426;37.758;2023-02-28T14:08:57;4.22;;;2.30;;
75616;SDS011;64200;55.426;37.758;2023-02-28T14:13:58;3.67;;;1.70;;
75616;SDS011;64200;55.426;37.758;2023-02-28T14:19:01;3.78;;;1.60;;
75616;SDS011;64200;55.426;37.758;2023-02-28T14:40:43;3.35;;;1.52;;
75616;SDS011;64200;55.426;37.758;2023-02-28T14:45:49;3.28;;;1.80;;
75616;SDS011;64200;55.426;37.758;2023-02-28T14:50:58;5.50;;;1.95;;
75616;SDS011;64200;55.426;37.758;2023-02-28T14:56:00;2.35;;;1.63;;
75616;SDS011;64200;55.426;37.758;2023-02-28T15:01:02;2.13;;;1.27;;
75616;SDS011;64200;55.426;37.758;2023-02-28T15:06:14;3.42;;;1.60;;
75616;SDS011;64200;55.426;37.758;2023-02-28T15:11:20;4.43;;;2.05;;
75616;SDS011;64200;55.426;37.758;2023-02-28T15:16:42;5.68;;;2.50;;
75616;SDS011;64200;55.426;37.758;2023-02-28T15:21:48;4.05;;;1.90;;
75616;SDS011;64200;55.426;37.758;2023-02-28T15:26:53;4.38;;;2.03;;
75616;SDS011;64200;55.426;37.758;2023-02-28T15:32:00;3.03;;;1.95;;
75616;SDS011;64200;55.426;37.758;2023-02-28T15:42:29;3.05;;;1.70;;
75616;SDS011;64200;55.426;37.758;2023-02-28T15:47:31;3.08;;;2.10;;
75616;SDS011;64200;55.426;37.758;2023-02-28T15:57:36;3.33;;;2.22;;
75616;SDS011;64200;55.426;37.758;2023-02-28T16:02:40;5.30;;;2.50;;
75616;SDS011;64200;55.426;37.758;2023-02-28T16:07:42;4.03;;;2.03;;
75616;SDS011;64200;55.426;37.758;2023-02-28T16:12:43;4.10;;;1.90;;
75616;SDS011;64200;55.426;37.758;2023-02-28T16:17:44;3.00;;;1.70;;
75616;SDS011;64200;55.426;37.758;2023-02-28T16:22:46;3.28;;;1.88;;
75616;SDS011;64200;55.426;37.758;2023-02-28T16:27:50;3.47;;;1.63;;
75616;SDS011;64200;55.426;37.758;2023-02-28T16:32:57;3.72;;;1.52;;
75616;SDS011;64200;55.426;37.758;2023-02-28T16:38:00;2.90;;;1.55;;
75616;SDS011;64200;55.426;37.758;2023-02-28T16:43:07;3.28;;;2.05;;
75616;SDS011;64200;55.426;37.758;2023-02-28T16:48:14;2.78;;;1.63;;
75616;SDS011;64200;55.426;37.758;2023-02-28T16:53:17;2.08;;;1.42;;
75616;SDS011;64200;55.426;37.758;2023-02-28T16:58:18;3.22;;;1.50;;
75616;SDS011;64200;55.426;37.758;2023-02-28T17:03:25;3.25;;;1.63;;
75616;SDS011;64200;55.426;37.758;2023-02-28T17:08:28;3.55;;;1.83;;
75616;SDS011;64200;55.426;37.758;2023-02-28T17:13:32;2.05;;;1.23;;
75616;SDS011;64200;55.426;37.758;2023-02-28T17:18:34;4.00;;;1.75;;
75616;SDS011;64200;55.426;37.758;2023-02-28T17:23:35;2.97;;;1.55;;
75616;SDS011;64200;55.426;37.758;2023-02-28T17:28:37;4.55;;;2.15;;
75616;SDS011;64200;55.426;37.758;2023-02-28T17:33:38;4.72;;;2.28;;
75616;SDS011;64200;55.426;37.758;2023-02-28T17:38:39;3.95;;;2.05;;
75616;SDS011;64200;55.426;37.758;2023-02-28T17:43:40;2.38;;;1.38;;
75616;SDS011;64200;55.426;37.758;2023-02-28T17:48:41;3.65;;;1.67;;
75616;SDS011;64200;55.426;37.758;2023-02-28T17:53:42;2.83;;;1.60;;
75616;SDS011;64200;55.426;37.758;2023-02-28T17:58:43;2.90;;;1.30;;
75616;SDS011;64200;55.426;37.758;2023-02-28T18:03:44;1.83;;;1.10;;
75616;SDS011;64200;55.426;37.758;2023-02-28T18:08:47;2.63;;;1.27;;
75616;SDS011;64200;55.426;37.758;2023-02-28T18:13:49;3.83;;;1.80;;
75616;SDS011;64200;55.426;37.758;2023-02-28T18:18:52;2.38;;;1.05;;
75616;SDS011;64200;55.426;37.758;2023-02-28T18:23:52;2.35;;;1.17;;
75616;SDS011;64200;55.426;37.758;2023-02-28T18:28:53;0.70;;;0.50;;
75616;SDS011;64200;55.426;37.758;2023-02-28T18:33:53;2.07;;;1.33;;
75616;SDS011;64200;55.426;37.758;2023-02-28T18:38:54;2.40;;;1.13;;
75616;SDS011;64200;55.426;37.758;2023-02-28T18:43:55;3.05;;;1.02;;
75616;SDS011;64200;55.426;37.758;2023-02-28T18:48:56;1.27;;;0.70;;
75616;SDS011;64200;55.426;37.758;2023-02-28T18:53:57;1.27;;;0.50;;
75616;SDS011;64200;55.426;37.758;2023-02-28T18:58:58;3.03;;;0.73;;
75616;SDS011;64200;55.426;37.758;2023-02-28T19:03:59;1.15;;;0.30;;
75616;SDS011;64200;55.426;37.758;2023-02-28T19:09:01;2.00;;;0.43;;
75616;SDS011;64200;55.426;37.758;2023-02-28T19:14:02;1.58;;;0.30;;
75616;SDS011;64200;55.426;37.758;2023-02-28T19:19:03;1.02;;;0.28;;
75616;SDS011;64200;55.426;37.758;2023-02-28T19:24:04;0.67;;;0.53;;
75616;SDS011;64200;55.426;37.758;2023-02-28T19:29:05;1.40;;;0.52;;
75616;SDS011;64200;55.426;37.758;2023-02-28T19:34:05;1.33;;;0.45;;
75616;SDS011;64200;55.426;37.758;2023-02-28T19:39:06;1.85;;;0.40;;
75616;SDS011;64200;55.426;37.758;2023-02-28T19:44:07;0.98;;;0.43;;
75616;SDS011;64200;55.426;37.758;2023-02-28T19:49:10;1.55;;;0.60;;
75616;SDS011;64200;55.426;37.758;2023-02-28T19:54:11;3.10;;;0.30;;
75616;SDS011;64200;55.426;37.758;2023-02-28T19:59:12;2.70;;;0.53;;
75616;SDS011;64200;55.426;37.758;2023-02-28T20:04:17;0.98;;;0.32;;
75616;SDS011;64200;55.426;37.758;2023-02-28T20:09:18;3.93;;;0.77;;
75616;SDS011;64200;55.426;37.758;2023-02-28T20:14:18;1.30;;;0.40;;
75616;SDS011;64200;55.426;37.758;2023-02-28T20:19:19;2.08;;;0.82;;
75616;SDS011;64200;55.426;37.758;2023-02-28T20:24:19;1.98;;;0.50;;
75616;SDS011;64200;55.426;37.758;2023-02-28T20:29:24;1.25;;;0.50;;
75616;SDS011;64200;55.426;37.758;2023-02-28T20:34:25;4.53;;;1.33;;
75616;SDS011;64200;55.426;37.758;2023-02-28T20:39:26;1.35;;;0.20;;
75616;SDS011;64200;55.426;37.758;2023-02-28T20:44:26;0.40;;;0.28;;
75616;SDS011;64200;55.426;37.758;2023-02-28T20:49:27;0.55;;;0.20;;
75616;SDS011;64200;55.426;37.758;2023-02-28T20:54:27;1.15;;;0.25;;
75616;SDS011;64200;55.426;37.758;2023-02-28T20:59:29;1.60;;;0.43;;
75616;SDS011;64200;55.426;37.758;2023-02-28T21:04:30;2.45;;;0.30;;
75616;SDS011;64200;55.426;37.758;2023-02-28T21:09:30;1.00;;;0.20;;
75616;SDS011;64200;55.426;37.758;2023-02-28T21:14:31;1.05;;;0.20;;
75616;SDS011;64200;55.426;37.758;2023-02-28T21:19:31;0.32;;;0.10;;
75616;SDS011;64200;55.426;37.758;2023-02-28T21:24:32;0.67;;;0.10;;
75616;SDS011;64200;55.426;37.758;2023-02-28T21:29:32;0.85;;;0.30;;
75616;SDS011;64200;55.426;37.758;2023-02-28T21:34:33;0.40;;;0.23;;
75616;SDS011;64200;55.426;37.758;2023-02-28T21:39:33;1.20;;;0.40;;
75616;SDS011;64200;55.426;37.758;2023-02-28T21:44:34;1.30;;;0.17;;
75616;SDS011;64200;55.426;37.758;2023-02-28T21:49:35;1.00;;;0.22;;
75616;SDS011;64200;55.426;37.758;2023-02-28T21:54:38;1.38;;;0.22;;
75616;SDS011;64200;55.426;37.758;2023-02-28T21:59:38;0.98;;;0.17;;
75616;SDS011;64200;55.426;37.758;2023-02-28T22:04:39;0.87;;;0.20;;
75616;SDS011;64200;55.426;37.758;2023-02-28T22:09:39;2.10;;;0.52;;
75616;SDS011;64200;55.426;37.758;2023-02-28T22:14:40;0.70;;;0.13;;
75616;SDS011;64200;55.426;37.758;2023-02-28T22:19:41;0.22;;;0.10;;
75616;SDS011;64200;55.426;37.758;2023-02-28T22:24:42;1.05;;;0.20;;
75616;SDS011;64200;55.426;37.758;2023-02-28T22:29:42;1.52;;;0.28;;
75616;SDS011;64200;55.426;37.758;2023-02-28T22:34:43;0.67;;;0.30;;
75616;SDS011;64200;55.426;37.758;2023-02-28T22:39:43;0.90;;;0.20;;
75616;SDS011;64200;55.426;37.758;2023-02-28T22:44:44;0.85;;;0.40;;
75616;SDS011;64200;55.426;37.758;2023-02-28T22:49:45;0.13;;;0.10;;
75616;SDS011;64200;55.426;37.758;2023-02-28T22:54:49;1.23;;;0.10;;
75616;SDS011;64200;55.426;37.758;2023-02-28T22:59:50;1.75;;;0.52;;
75616;SDS011;64200;55.426;37.758;2023-02-28T23:04:53;3.90;;;0.30;;
75616;SDS011;64200;55.426;37.758;2023-02-28T23:09:53;1.55;;;0.43;;
75616;SDS011;64200;55.426;37.758;2023-02-28T23:14:54;0.60;;;0.50;;
75616;SDS011;64200;55.426;37.758;2023-02-28T23:19:54;4.37;;;0.70;;
75616;SDS011;64200;55.426;37.758;2023-02-28T23:24:55;1.57;;;0.60;;
75616;SDS011;64200;55.426;37.758;2023-02-28T23:29:56;2.35;;;0.40;;
75616;SDS011;64200;55.426;37.758;2023-02-28T23:34:56;1.95;;;0.52;;
75616;SDS011;64200;55.426;37.758;2023-02-28T23:39:59;0.60;;;0.25;;
75616;SDS011;64200;55.426;37.758;2023-02-28T23:45:00;0.65;;;0.20;;
75616;SDS011;64200;55.426;37.758;2023-02-28T23:50:00;0.70;;;0.40;;
75616;SDS011;64200;55.426;37.758;2023-02-28T23:55:02;3.90;;;0.75;;
